Time;durP1;ratioP1;P1;durP2;ratioP2;P2;SDS_P1;SDS_P2;PMS_P1;PMS_P2;Temp;Humidity;BMP_temperature;BMP_pressure;BME280_temperature;BME280_humidity;BME280_pressure;Samples;Min_cycle;Max_cycle;Signal;HPM_P1;HPM_P2
2021/11/19 00:00:44;;;;;;;17.40;10.60;;;;;;;8.26;83.76;100418.20;87895;1292;93485;-69
2021/11/19 00:02:53;;;;;;;16.60;9.90;;;;;;;8.26;83.80;100405.17;87903;1291;80013;-71
2021/11/19 00:04:58;;;;;;;14.40;10.40;;;;;;;8.21;83.84;100400.27;87925;1288;80642;-73
2021/11/19 00:07:09;;;;;;;16.60;10.90;;;;;;;8.22;83.89;100401.31;87905;1290;98421;-74
2021/11/19 00:09:17;;;;;;;16.80;9.90;;;;;;;8.19;83.99;100397.63;87951;1292;90901;-73
2021/11/19 00:11:29;;;;;;;19.00;10.90;;;;;;;8.21;83.95;100393.87;87885;1293;93686;-70
2021/11/19 00:13:39;;;;;;;16.30;9.40;;;;;;;8.21;84.06;100388.50;87907;1292;80110;-72
2021/11/19 00:15:50;;;;;;;16.00;10.60;;;;;;;8.19;84.07;100388.88;87907;1292;81553;-73
2021/11/19 00:18:00;;;;;;;16.70;10.60;;;;;;;8.15;84.21;100379.11;87814;1296;99839;-70
2021/11/19 00:20:15;;;;;;;17.60;10.80;;;;;;;8.14;84.36;100375.23;87889;1289;87240;-68
2021/11/19 00:22:24;;;;;;;17.10;10.20;;;;;;;8.11;84.24;100375.33;87889;1285;95040;-74
2021/11/19 00:24:30;;;;;;;17.00;10.20;;;;;;;8.08;84.27;100376.34;87921;1293;82424;-74
2021/11/19 00:26:39;;;;;;;17.30;10.70;;;;;;;8.07;84.34;100385.77;87926;1281;80815;-69
2021/11/19 00:28:46;;;;;;;16.90;9.80;;;;;;;8.06;84.57;100376.02;87735;1291;97769;-70
2021/11/19 00:30:52;;;;;;;14.60;10.10;;;;;;;8.05;84.80;100383.20;87918;1288;86709;-69
2021/11/19 00:32:59;;;;;;;15.80;9.30;;;;;;;8.04;84.62;100382.17;87886;1286;94401;-70
2021/11/19 00:35:11;;;;;;;17.10;9.70;;;;;;;8.08;84.90;100371.58;87892;1288;81248;-70
2021/11/19 00:37:22;;;;;;;13.30;10.50;;;;;;;8.09;84.79;100373.73;87931;1288;81565;-72
2021/11/19 00:39:29;;;;;;;14.60;10.90;;;;;;;8.12;84.71;100374.31;87921;1293;98463;-73
2021/11/19 00:41:36;;;;;;;14.90;10.30;;;;;;;8.13;84.68;100372.77;87914;1288;88764;-70
2021/11/19 00:43:44;;;;;;;15.70;10.80;;;;;;;8.15;84.65;100370.30;87890;1288;93459;-73
2021/11/19 00:45:52;;;;;;;13.50;10.80;;;;;;;8.17;84.75;100370.42;87888;1287;80319;-73
2021/11/19 00:48:03;;;;;;;16.40;10.40;;;;;;;8.18;84.69;100364.10;87913;1284;80893;-70
2021/11/19 00:50:14;;;;;;;13.60;9.40;;;;;;;8.19;84.72;100358.06;87881;1288;97849;-70
2021/11/19 00:52:24;;;;;;;13.90;9.70;;;;;;;8.17;84.83;100354.48;87898;1286;86369;-69
2021/11/19 00:54:33;;;;;;;14.30;9.80;;;;;;;8.14;84.82;100354.63;87892;1289;95111;-67
2021/11/19 00:56:44;;;;;;;13.70;9.60;;;;;;;8.10;84.87;100350.13;87913;1293;79528;-68
2021/11/19 00:58:56;;;;;;;15.20;9.70;;;;;;;8.08;84.86;100352.29;87912;1288;80777;-69
2021/11/19 01:01:14;;;;;;;12.90;9.70;;;;;;;8.07;85.43;100342.17;87879;1293;100403;-67
2021/11/19 01:03:25;;;;;;;13.60;8.70;;;;;;;8.03;85.13;100341.46;87786;1295;87055;-67
2021/11/19 01:05:34;;;;;;;15.40;9.40;;;;;;;8.03;85.08;100343.02;87915;1291;95532;-67
2021/11/19 01:07:43;;;;;;;14.50;9.00;;;;;;;8.03;85.13;100338.89;87902;1296;81176;-67
2021/11/19 01:09:55;;;;;;;13.50;8.70;;;;;;;8.03;85.31;100330.66;87918;1294;81961;-67
2021/11/19 01:12:05;;;;;;;13.60;8.90;;;;;;;8.02;85.36;100338.81;87896;1293;98024;-72
2021/11/19 01:14:20;;;;;;;11.60;8.40;;;;;;;8.02;85.53;100329.86;87895;1281;86509;-73
2021/11/19 01:16:32;;;;;;;10.20;8.00;;;;;;;8.01;85.46;100336.10;87878;1293;94320;-70
2021/11/19 01:18:47;;;;;;;9.10;7.70;;;;;;;8.05;85.47;100337.44;87864;1292;81765;-70
2021/11/19 01:20:58;;;;;;;10.40;8.10;;;;;;;8.07;85.49;100333.47;87881;1294;83043;-68
2021/11/19 01:23:10;;;;;;;10.40;8.10;;;;;;;8.05;85.67;100327.86;87887;1292;98480;-67
2021/11/19 01:25:23;;;;;;;14.40;8.60;;;;;;;8.07;85.61;100330.61;87729;1291;90500;-67
2021/11/19 01:27:29;;;;;;;9.80;7.80;;;;;;;8.05;85.75;100335.45;87850;1289;94997;-67
2021/11/19 01:29:35;;;;;;;9.60;8.00;;;;;;;8.04;85.60;100334.16;87878;1293;82123;-67
2021/11/19 01:31:52;;;;;;;8.90;7.30;;;;;;;8.04;85.68;100333.95;87835;1294;83103;-67
2021/11/19 01:34:00;;;;;;;11.00;6.90;;;;;;;8.07;85.72;100339.39;87869;1290;100303;-67
2021/11/19 01:36:08;;;;;;;8.70;7.80;;;;;;;8.09;85.57;100331.34;87918;1288;88657;-68
2021/11/19 01:38:15;;;;;;;9.30;7.30;;;;;;;8.09;85.65;100318.79;87866;1296;94513;-67
2021/11/19 01:40:27;;;;;;;10.00;7.80;;;;;;;8.12;85.65;100319.55;87904;1288;79095;-68
2021/11/19 01:42:40;;;;;;;10.00;7.80;;;;;;;8.14;85.67;100320.23;87910;1290;80074;-67
2021/11/19 01:45:00;;;;;;;10.50;7.80;;;;;;;8.08;85.72;100318.57;87895;1286;96826;-69
2021/11/19 01:47:13;;;;;;;9.40;7.00;;;;;;;8.05;85.69;100309.94;87905;1292;87780;-74
2021/11/19 01:49:26;;;;;;;8.90;6.70;;;;;;;8.04;85.80;100311.56;87889;1290;95570;-74
2021/11/19 01:51:42;;;;;;;8.30;7.20;;;;;;;8.01;85.81;100296.14;87900;1288;81913;-67
2021/11/19 01:53:54;;;;;;;8.90;6.90;;;;;;;7.99;85.96;100291.67;87914;1294;81982;-67
2021/11/19 01:56:04;;;;;;;13.40;7.00;;;;;;;8.01;85.97;100296.88;87726;1290;99310;-67
2021/11/19 01:58:19;;;;;;;8.60;6.70;;;;;;;8.01;85.88;100293.77;87930;1290;88086;-67
2021/11/19 02:00:38;;;;;;;9.30;6.60;;;;;;;8.01;86.03;100299.13;87881;1288;95351;-68
2021/11/19 02:02:50;;;;;;;8.50;7.00;;;;;;;8.04;86.09;100295.20;87876;1288;81236;-73
2021/11/19 02:05:00;;;;;;;9.50;7.00;;;;;;;8.07;85.98;100302.73;87896;1290;80418;-74
2021/11/19 02:07:24;;;;;;;6.90;6.00;;;;;;;8.11;86.02;100304.47;87928;1290;100050;-73
2021/11/19 02:09:43;;;;;;;8.50;6.20;;;;;;;8.15;86.06;100294.69;87900;1288;88847;-73
2021/11/19 02:12:09;;;;;;;7.70;6.50;;;;;;;8.16;86.03;100290.04;87888;1289;93682;-67
2021/11/19 02:14:27;;;;;;;7.00;5.80;;;;;;;8.19;86.14;100291.27;87909;1288;81112;-67
2021/11/19 02:16:39;;;;;;;7.90;6.10;;;;;;;8.23;86.02;100290.45;87895;1290;81668;-67
2021/11/19 02:18:55;;;;;;;8.10;6.30;;;;;;;8.21;86.03;100285.10;87872;1293;98785;-67
2021/11/19 02:21:10;;;;;;;7.00;5.90;;;;;;;8.20;86.09;100289.79;87895;1290;88764;-68
2021/11/19 02:23:20;;;;;;;6.50;5.50;;;;;;;8.27;86.07;100289.50;87867;1287;93961;-74
2021/11/19 02:25:36;;;;;;;8.10;6.30;;;;;;;8.24;86.17;100281.73;87911;1288;80189;-74
2021/11/19 02:27:50;;;;;;;6.70;5.30;;;;;;;8.24;86.32;100286.89;87913;1293;80447;-72
2021/11/19 02:29:59;;;;;;;;;;;;;;;8.23;86.33;100287.38;87892;1288;99600;-73
2021/11/19 02:32:11;;;;;;;7.40;5.90;;;;;;;8.22;86.40;100290.22;87895;1288;88881;-73
2021/11/19 02:34:19;;;;;;;6.90;5.80;;;;;;;8.23;86.42;100285.40;87722;1290;95597;-73
2021/11/19 02:36:36;;;;;;;6.10;5.50;;;;;;;8.26;86.38;100292.63;87918;1291;81852;-66
2021/11/19 02:38:54;;;;;;;6.60;5.90;;;;;;;8.31;86.24;100294.59;87912;1288;82719;-68
2021/11/19 02:41:01;;;;;;;6.70;6.00;;;;;;;8.33;86.27;100296.73;87891;1290;99520;-66
2021/11/19 02:43:15;;;;;;;6.30;5.70;;;;;;;8.32;86.35;100299.75;87902;1290;89258;-67
2021/11/19 02:45:27;;;;;;;7.30;6.20;;;;;;;8.33;86.20;100301.95;87727;1290;95654;-67
2021/11/19 02:47:35;;;;;;;6.80;6.10;;;;;;;8.29;86.30;100292.15;87878;1288;81281;-73
2021/11/19 02:49:43;;;;;;;5.80;5.00;;;;;;;8.27;86.16;100292.55;87893;1288;81799;-75
2021/11/19 02:51:50;;;;;;;5.70;5.10;;;;;;;8.25;86.39;100292.21;87898;1290;98757;-67
2021/11/19 02:53:56;;;;;;;5.70;5.10;;;;;;;8.25;86.43;100296.35;87892;1293;87593;-67
2021/11/19 02:56:12;;;;;;;5.90;4.60;;;;;;;8.25;86.35;100296.48;87900;1291;94068;-67
2021/11/19 02:58:25;;;;;;;5.80;4.50;;;;;;;8.27;86.35;100285.35;87920;1289;81729;-67
2021/11/19 03:00:44;;;;;;;4.90;4.20;;;;;;;8.24;86.53;100284.07;87905;1291;81234;-67
2021/11/19 03:02:50;;;;;;;5.80;4.50;;;;;;;8.25;86.46;100277.11;87847;1295;99523;-73
2021/11/19 03:05:06;;;;;;;5.80;4.80;;;;;;;8.26;86.47;100276.13;87922;1289;87737;-74
2021/11/19 03:07:13;;;;;;;5.10;4.60;;;;;;;8.29;86.63;100284.61;87925;1293;94429;-67
2021/11/19 03:09:23;;;;;;;4.50;4.10;;;;;;;8.31;86.72;100282.05;87947;1288;82650;-67
2021/11/19 03:11:29;;;;;;;5.50;5.10;;;;;;;8.28;86.67;100281.10;87891;1286;79993;-75
2021/11/19 03:13:39;;;;;;;5.40;4.90;;;;;;;8.34;86.65;100283.20;87883;1288;100155;-74
2021/11/19 03:15:50;;;;;;;4.90;4.40;;;;;;;8.36;86.56;100293.69;87902;1288;88497;-74
2021/11/19 03:17:57;;;;;;;4.70;4.30;;;;;;;8.36;86.60;100295.64;87889;1290;93785;-68
2021/11/19 03:20:11;;;;;;;5.70;4.50;;;;;;;8.35;86.62;100292.69;87888;1290;81510;-67
2021/11/19 03:22:24;;;;;;;5.20;4.10;;;;;;;8.35;86.71;100288.98;87826;1290;83366;-74
2021/11/19 03:24:31;;;;;;;4.40;4.00;;;;;;;8.38;86.70;100299.23;87881;1290;100040;-75
2021/11/19 03:26:41;;;;;;;5.50;4.60;;;;;;;8.42;86.63;100301.27;87911;1288;86761;-73
2021/11/19 03:28:47;;;;;;;5.40;4.20;;;;;;;8.43;86.74;100299.27;87868;1290;95254;-75
2021/11/19 03:30:57;;;;;;;4.50;4.10;;;;;;;8.43;86.65;100302.50;87704;1296;81467;-76
2021/11/19 03:33:06;;;;;;;4.30;3.60;;;;;;;8.44;86.85;100299.53;87918;1289;80934;-74
2021/11/19 03:35:18;;;;;;;4.00;3.70;;;;;;;8.46;86.74;100298.07;87870;1288;99309;-75
2021/11/19 03:37:24;;;;;;;4.80;4.20;;;;;;;8.47;86.71;100292.54;87904;1292;87724;-70
2021/11/19 03:39:32;;;;;;;4.50;3.90;;;;;;;8.46;86.76;100283.09;87896;1284;93934;-67
2021/11/19 03:41:40;;;;;;;4.50;4.00;;;;;;;8.50;86.70;100291.90;87916;1284;79070;-74
2021/11/19 03:43:57;;;;;;;4.10;3.70;;;;;;;8.47;86.72;100284.52;87893;1288;83386;-73
2021/11/19 03:46:11;;;;;;;4.50;4.10;;;;;;;8.50;86.79;100285.02;87885;1290;100458;-74
2021/11/19 03:48:17;;;;;;;4.90;4.40;;;;;;;8.50;86.80;100285.89;87885;1281;86196;-67
2021/11/19 03:50:29;;;;;;;5.30;4.80;;;;;;;8.50;86.74;100290.20;87894;1288;94073;-67
2021/11/19 03:52:38;;;;;;;6.10;5.50;;;;;;;8.52;86.84;100289.61;87921;1288;78828;-67
2021/11/19 03:54:48;;;;;;;5.40;4.90;;;;;;;8.51;86.86;100291.83;87898;1285;80981;-67
2021/11/19 03:56:56;;;;;;;5.60;5.10;;;;;;;8.44;86.85;100287.36;87901;1288;100084;-74
2021/11/19 03:59:03;;;;;;;5.20;4.70;;;;;;;8.42;86.80;100292.21;87919;1290;88818;-74
2021/11/19 04:01:16;;;;;;;6.70;4.70;;;;;;;8.44;86.84;100293.77;87901;1289;95616;-67
2021/11/19 04:03:27;;;;;;;5.00;4.60;;;;;;;8.42;86.90;100295.54;87940;1284;80760;-68
2021/11/19 04:05:34;;;;;;;5.10;4.60;;;;;;;8.43;86.98;100305.39;87899;1285;81398;-67
2021/11/19 04:07:40;;;;;;;5.20;4.70;;;;;;;8.47;87.02;100299.58;87890;1285;99755;-75
2021/11/19 04:09:48;;;;;;;4.60;4.20;;;;;;;8.48;86.94;100302.27;87913;1293;87254;-75
2021/11/19 04:11:54;;;;;;;4.70;4.20;;;;;;;8.50;87.03;100302.92;87897;1288;94705;-75
2021/11/19 04:14:00;;;;;;;4.40;4.00;;;;;;;8.52;87.00;100307.21;87886;1288;81359;-75
2021/11/19 04:16:11;;;;;;;4.60;4.10;;;;;;;8.53;86.98;100308.11;87913;1291;83011;-69
2021/11/19 04:18:18;;;;;;;4.70;4.30;;;;;;;8.58;86.99;100313.17;87907;1288;97984;-68
2021/11/19 04:20:26;;;;;;;4.20;3.80;;;;;;;8.60;86.90;100312.30;87880;1290;88779;-69
2021/11/19 04:22:32;;;;;;;3.80;3.40;;;;;;;8.63;86.86;100304.52;87900;1284;93350;-75
2021/11/19 04:24:43;;;;;;;5.20;4.70;;;;;;;8.69;86.80;100311.61;87894;1293;79805;-75
2021/11/19 04:26:50;;;;;;;5.50;3.70;;;;;;;8.69;86.95;100310.06;87878;1286;82168;-69
2021/11/19 04:28:57;;;;;;;4.60;4.20;;;;;;;8.68;86.90;100305.63;87882;1290;98208;-68
2021/11/19 04:31:08;;;;;;;4.80;4.20;;;;;;;8.71;86.83;100306.67;87894;1290;87755;-68
2021/11/19 04:33:18;;;;;;;5.10;4.30;;;;;;;8.70;87.05;100305.64;87896;1294;93335;-67
2021/11/19 04:35:30;;;;;;;4.70;4.30;;;;;;;8.70;86.80;100297.40;87907;1294;77815;-67
2021/11/19 04:37:40;;;;;;;5.40;4.90;;;;;;;8.70;86.85;100294.33;87920;1290;81984;-67
2021/11/19 04:39:46;;;;;;;5.10;4.40;;;;;;;8.65;86.75;100301.24;87907;1291;97970;-66
2021/11/19 04:41:56;;;;;;;5.40;4.90;;;;;;;8.66;86.75;100298.20;87907;1290;88594;-73
2021/11/19 04:44:04;;;;;;;5.10;4.60;;;;;;;8.64;86.84;100290.92;87894;1292;94206;-75
2021/11/19 04:46:11;;;;;;;4.70;4.30;;;;;;;8.65;86.97;100290.43;87917;1292;80721;-76
2021/11/19 04:48:18;;;;;;;5.20;4.70;;;;;;;8.64;86.90;100292.28;87916;1288;81667;-75
2021/11/19 04:50:29;;;;;;;4.60;4.20;;;;;;;8.65;87.03;100301.38;87889;1289;100128;-75
2021/11/19 04:52:36;;;;;;;5.30;4.80;;;;;;;8.62;87.09;100291.33;87887;1288;87856;-67
2021/11/19 04:54:45;;;;;;;4.20;3.90;;;;;;;8.57;87.32;100289.39;87893;1288;94232;-68
2021/11/19 04:56:53;;;;;;;4.40;4.00;;;;;;;8.62;87.44;100279.08;87878;1286;81997;-75
2021/11/19 04:59:00;;;;;;;4.80;4.40;;;;;;;8.67;87.25;100283.39;87911;1291;82678;-74
2021/11/19 05:01:15;;;;;;;4.40;3.80;;;;;;;8.71;87.30;100290.25;87887;1293;99726;-69
2021/11/19 05:03:25;;;;;;;4.80;4.40;;;;;;;8.73;87.19;100295.92;87882;1288;88137;-75
2021/11/19 05:05:35;;;;;;;4.10;3.70;;;;;;;8.73;87.47;100301.45;87891;1288;94958;-75
2021/11/19 05:07:42;;;;;;;4.30;3.90;;;;;;;8.76;87.34;100305.22;87814;1290;82801;-68
2021/11/19 05:09:49;;;;;;;4.40;4.00;;;;;;;8.78;87.30;100300.66;87885;1291;81169;-68
2021/11/19 05:12:04;;;;;;;4.20;3.80;;;;;;;8.84;87.34;100299.03;87906;1289;98629;-74
2021/11/19 05:14:14;;;;;;;3.60;3.30;;;;;;;8.89;87.28;100303.20;87893;1285;88440;-75
2021/11/19 05:16:21;;;;;;;3.80;3.50;;;;;;;8.90;87.32;100299.09;87896;1288;95573;-74
2021/11/19 05:18:31;;;;;;;3.20;2.90;;;;;;;8.90;87.19;100296.06;87899;1290;83124;-75
2021/11/19 05:20:44;;;;;;;4.00;3.60;;;;;;;8.96;87.28;100299.39;87915;1284;80177;-75
2021/11/19 05:22:55;;;;;;;4.00;3.60;;;;;;;9.00;87.42;100305.55;87905;1288;99106;-68
2021/11/19 05:25:04;;;;;;;3.70;3.30;;;;;;;9.02;87.27;100316.36;87892;1288;88677;-68
2021/11/19 05:27:13;;;;;;;3.70;3.40;;;;;;;9.04;87.22;100312.67;87864;1288;94558;-74
2021/11/19 05:29:22;;;;;;;3.90;3.50;;;;;;;9.06;87.24;100311.79;87904;1287;78083;-75
2021/11/19 05:31:29;;;;;;;5.50;3.60;;;;;;;9.07;87.34;100318.81;87919;1290;81496;-74
2021/11/19 05:33:37;;;;;;;4.20;3.80;;;;;;;9.06;87.22;100319.17;87801;1294;98805;-76
2021/11/19 05:35:44;;;;;;;4.30;3.90;;;;;;;9.08;87.13;100324.81;87904;1290;89001;-75
2021/11/19 05:37:53;;;;;;;4.50;4.10;;;;;;;9.08;87.12;100325.75;87880;1291;95535;-68
2021/11/19 05:40:00;;;;;;;4.10;3.70;;;;;;;9.04;87.18;100329.45;87877;1278;79020;-68
2021/11/19 05:42:07;;;;;;;4.20;3.80;;;;;;;9.03;87.22;100331.69;87908;1288;80688;-68
2021/11/19 05:44:17;;;;;;;4.30;3.90;;;;;;;9.05;87.27;100336.15;87874;1290;98372;-68
2021/11/19 05:46:27;;;;;;;4.70;4.00;;;;;;;9.04;87.26;100326.40;87902;1291;87499;-75
2021/11/19 05:48:33;;;;;;;4.50;4.10;;;;;;;9.08;87.36;100324.83;87883;1285;93941;-75
2021/11/19 05:50:43;;;;;;;5.00;4.50;;;;;;;9.13;87.27;100319.41;87900;1290;81467;-74
2021/11/19 05:52:57;;;;;;;4.80;4.40;;;;;;;9.11;87.27;100313.30;87919;1290;83068;-73
2021/11/19 05:55:11;;;;;;;5.00;4.50;;;;;;;9.13;87.32;100300.35;87877;1286;96897;-75
2021/11/19 05:57:16;;;;;;;;;;;;;;;9.14;87.32;100297.20;87914;1286;85970;-67
2021/11/19 05:59:22;;;;;;;6.10;5.50;;;;;;;9.17;87.49;100287.80;87924;1285;93701;-67
2021/11/19 06:01:28;;;;;;;5.70;5.10;;;;;;;9.20;87.51;100279.73;87869;1288;81983;-66
2021/11/19 06:03:35;;;;;;;5.00;4.50;;;;;;;9.23;87.42;100275.17;87908;1286;80578;-67
2021/11/19 06:05:41;;;;;;;5.10;4.60;;;;;;;9.24;87.43;100288.38;87870;1288;100001;-68
2021/11/19 06:07:50;;;;;;;5.70;5.20;;;;;;;9.26;87.35;100293.67;87885;1288;88790;-67
2021/11/19 06:09:58;;;;;;;6.20;5.70;;;;;;;9.30;87.58;100292.16;87896;1286;94138;-67
2021/11/19 06:12:19;;;;;;;6.50;5.90;;;;;;;9.34;87.32;100306.95;87892;1285;79358;-67
2021/11/19 06:14:35;;;;;;;5.90;5.40;;;;;;;9.34;87.48;100301.76;87759;1288;81914;-68
2021/11/19 06:16:55;;;;;;;6.70;6.10;;;;;;;9.34;87.34;100295.58;87896;1284;96811;-74
2021/11/19 06:19:05;;;;;;;7.40;6.80;;;;;;;9.37;87.31;100289.69;87931;1290;88293;-73
2021/11/19 06:21:19;;;;;;;6.70;6.10;;;;;;;9.36;87.30;100300.05;87934;1288;93690;-67
2021/11/19 06:23:35;;;;;;;5.70;5.20;;;;;;;9.34;87.45;100302.98;87914;1290;81914;-67
2021/11/19 06:25:45;;;;;;;6.20;5.60;;;;;;;9.35;87.29;100304.61;87898;1288;83150;-68
2021/11/19 06:27:55;;;;;;;5.70;5.20;;;;;;;9.34;87.17;100306.70;87949;1288;100064;-75
2021/11/19 06:30:05;;;;;;;46.20;35.30;;;;;;;9.33;87.34;100308.64;87882;1284;87839;-74
2021/11/19 06:32:11;;;;;;;16.00;13.60;;;;;;;9.33;87.35;100307.08;87884;1288;94524;-65
2021/11/19 06:34:18;;;;;;;6.50;5.90;;;;;;;9.36;87.45;100314.77;87929;1288;80150;-65
2021/11/19 06:36:27;;;;;;;5.30;4.80;;;;;;;9.39;87.41;100319.63;87916;1289;83010;-66
2021/11/19 06:38:37;;;;;;;5.60;5.00;;;;;;;9.39;87.35;100321.23;87902;1288;99690;-65
2021/11/19 06:40:44;;;;;;;6.30;5.70;;;;;;;9.39;87.41;100324.79;87769;1290;88549;-66
2021/11/19 06:42:50;;;;;;;5.40;4.90;;;;;;;9.42;87.55;100324.05;87903;1288;93648;-65
2021/11/19 06:44:56;;;;;;;5.40;4.90;;;;;;;9.45;87.58;100328.90;87904;1288;79855;-66
2021/11/19 06:47:03;;;;;;;5.50;5.00;;;;;;;9.46;87.51;100335.33;87892;1285;82751;-73
2021/11/19 06:49:11;;;;;;;5.10;4.70;;;;;;;9.50;87.54;100334.81;87905;1290;98877;-76
2021/11/19 06:51:19;;;;;;;5.30;4.80;;;;;;;9.51;87.55;100332.39;87914;1288;88164;-66
2021/11/19 06:53:27;;;;;;;5.60;5.10;;;;;;;9.56;87.47;100328.52;87922;1286;93483;-72
2021/11/19 06:55:36;;;;;;;5.70;5.20;;;;;;;9.59;87.60;100314.30;87923;1290;79612;-73
2021/11/19 06:57:46;;;;;;;5.20;4.70;;;;;;;9.58;87.43;100313.29;87957;1288;79904;-74
2021/11/19 06:59:53;;;;;;;5.00;4.60;;;;;;;9.56;87.63;100319.73;87916;1284;97439;-75
2021/11/19 07:02:02;;;;;;;5.60;5.10;;;;;;;9.53;87.59;100315.79;87912;1290;89547;-74
2021/11/19 07:04:12;;;;;;;5.60;5.10;;;;;;;9.49;87.56;100321.98;87918;1286;95604;-74
2021/11/19 07:06:18;;;;;;;5.10;4.60;;;;;;;9.47;87.61;100316.61;87893;1293;81299;-73
2021/11/19 07:08:24;;;;;;;5.00;4.50;;;;;;;9.48;87.56;100319.20;87896;1288;82859;-76
2021/11/19 07:10:35;;;;;;;4.90;4.50;;;;;;;9.52;87.52;100320.71;87902;1288;97927;-73
2021/11/19 07:12:40;;;;;;;5.60;5.10;;;;;;;9.52;87.81;100331.87;87968;1288;87225;-66
2021/11/19 07:14:47;;;;;;;8.30;6.70;;;;;;;9.54;87.82;100327.41;87891;1285;93674;-68
2021/11/19 07:16:53;;;;;;;11.90;9.90;;;;;;;9.62;87.88;100334.09;87889;1288;82649;-73
2021/11/19 07:18:59;;;;;;;6.80;6.10;;;;;;;9.66;87.81;100343.45;87911;1290;82820;-74
2021/11/19 07:21:07;;;;;;;5.20;4.70;;;;;;;9.71;87.92;100344.06;87901;1289;100302;-72
2021/11/19 07:23:13;;;;;;;5.20;4.70;;;;;;;9.75;87.98;100348.44;87911;1291;88493;-73
2021/11/19 07:25:24;;;;;;;5.20;4.70;;;;;;;9.80;88.03;100344.27;87885;1288;96077;-74
2021/11/19 07:27:30;;;;;;;5.60;5.00;;;;;;;9.86;87.95;100347.52;87892;1284;80206;-73
2021/11/19 07:29:36;;;;;;;6.10;5.40;;;;;;;9.92;88.04;100350.83;87930;1287;82072;-67
2021/11/19 07:31:43;;;;;;;7.60;5.40;;;;;;;9.99;87.97;100355.84;87910;1290;98185;-72
2021/11/19 07:33:49;;;;;;;6.10;5.50;;;;;;;10.04;87.85;100356.95;87916;1289;88867;-72
2021/11/19 07:36:02;;;;;;;6.60;6.00;;;;;;;10.07;87.78;100361.40;87880;1290;93703;-73
2021/11/19 07:38:11;;;;;;;5.90;4.70;;;;;;;10.10;87.75;100361.65;87900;1288;77902;-68
2021/11/19 07:40:27;;;;;;;5.60;5.10;;;;;;;10.13;87.82;100367.25;87889;1286;81147;-73
2021/11/19 07:42:37;;;;;;;5.50;5.00;;;;;;;10.18;87.67;100366.60;87902;1287;100704;-68
2021/11/19 07:44:47;;;;;;;5.30;4.60;;;;;;;10.16;87.74;100362.06;87909;1285;88051;-73
2021/11/19 07:46:56;;;;;;;6.90;4.90;;;;;;;10.14;87.66;100359.81;87861;1289;95505;-68
2021/11/19 07:49:07;;;;;;;5.60;5.00;;;;;;;10.15;87.64;100364.89;87910;1290;81407;-73
2021/11/19 07:51:17;;;;;;;5.40;4.90;;;;;;;10.13;87.57;100360.91;87898;1285;80415;-68
2021/11/19 07:53:24;;;;;;;5.40;4.90;;;;;;;10.14;87.72;100364.29;87898;1286;98225;-68
2021/11/19 07:55:34;;;;;;;5.00;4.50;;;;;;;10.18;87.69;100358.41;87887;1289;88907;-67
2021/11/19 07:57:41;;;;;;;6.20;4.80;;;;;;;10.18;87.72;100358.83;87916;1289;95790;-74
2021/11/19 07:59:48;;;;;;;4.40;4.00;;;;;;;10.21;87.72;100366.27;87898;1288;80262;-74
2021/11/19 08:01:56;;;;;;;4.30;3.90;;;;;;;10.23;87.80;100366.06;87931;1289;80765;-74
2021/11/19 08:04:05;;;;;;;4.20;3.80;;;;;;;10.22;87.85;100366.73;87929;1291;98269;-74
2021/11/19 08:06:13;;;;;;;4.20;3.70;;;;;;;10.27;87.79;100362.44;87925;1288;88287;-68
2021/11/19 08:08:20;;;;;;;3.80;3.50;;;;;;;10.34;87.78;100363.08;87914;1288;94143;-68
2021/11/19 08:10:30;;;;;;;4.00;3.60;;;;;;;10.41;87.69;100367.05;87917;1285;78209;-68
2021/11/19 08:12:39;;;;;;;3.40;3.10;;;;;;;10.41;87.81;100363.11;87915;1288;80830;-75
2021/11/19 08:14:48;;;;;;;4.20;3.80;;;;;;;10.44;87.69;100367.17;87925;1290;100000;-75
2021/11/19 08:16:57;;;;;;;4.30;3.90;;;;;;;10.45;87.64;100362.50;87937;1290;89387;-74
2021/11/19 08:19:14;;;;;;;4.50;4.10;;;;;;;10.44;87.53;100358.73;87887;1285;94999;-75
2021/11/19 08:21:24;;;;;;;4.90;3.80;;;;;;;10.39;87.60;100359.91;87910;1290;80706;-68
2021/11/19 08:23:36;;;;;;;4.20;3.70;;;;;;;10.38;87.68;100356.22;87919;1288;81448;-68
2021/11/19 08:25:42;;;;;;;4.00;3.40;;;;;;;10.39;87.77;100365.45;87895;1289;98648;-68
2021/11/19 08:27:54;;;;;;;4.40;4.00;;;;;;;10.41;87.66;100371.66;87920;1287;89305;-68
2021/11/19 08:30:05;;;;;;;5.40;3.40;;;;;;;10.42;87.69;100369.98;87903;1290;94413;-68
2021/11/19 08:32:11;;;;;;;4.30;3.50;;;;;;;10.45;87.86;100370.60;87906;1290;81809;-68
2021/11/19 08:34:18;;;;;;;4.80;3.40;;;;;;;10.52;87.85;100365.73;87914;1285;83031;-68
2021/11/19 08:36:29;;;;;;;3.20;2.90;;;;;;;10.54;87.83;100367.64;87884;1287;98884;-68
2021/11/19 08:38:36;;;;;;;3.10;2.70;;;;;;;10.58;87.83;100361.83;87904;1290;88767;-68
2021/11/19 08:40:45;;;;;;;3.00;2.80;;;;;;;10.63;87.80;100357.17;87906;1286;91794;-68
2021/11/19 08:42:54;;;;;;;2.80;2.60;;;;;;;10.66;87.77;100359.50;87932;1288;79283;-74
2021/11/19 08:45:02;;;;;;;3.80;2.90;;;;;;;10.69;87.82;100362.40;87903;1286;82528;-74
2021/11/19 08:47:11;;;;;;;3.00;2.60;;;;;;;10.72;87.74;100357.78;87952;1288;99011;-75
2021/11/19 08:49:25;;;;;;;3.30;3.00;;;;;;;10.77;87.66;100350.63;87833;1291;87659;-75
2021/11/19 08:51:33;;;;;;;3.70;3.20;;;;;;;10.78;87.65;100344.58;87947;1291;95723;-68
2021/11/19 08:53:40;;;;;;;4.10;3.30;;;;;;;10.75;87.64;100357.40;87925;1290;79130;-69
2021/11/19 08:55:51;;;;;;;3.80;3.30;;;;;;;10.70;87.70;100362.09;87902;1290;80890;-68
2021/11/19 08:57:59;;;;;;;4.10;3.40;;;;;;;10.69;87.62;100360.11;87912;1290;99686;-69
2021/11/19 09:00:09;;;;;;;3.40;3.10;;;;;;;10.66;87.63;100360.05;87917;1289;88373;-68
2021/11/19 09:02:24;;;;;;;4.00;3.30;;;;;;;10.65;87.59;100361.73;87947;1278;92904;-68
2021/11/19 09:04:30;;;;;;;3.60;3.20;;;;;;;10.66;87.80;100361.49;87906;1291;80026;-68
2021/11/19 09:06:37;;;;;;;4.00;3.60;;;;;;;10.71;87.65;100363.45;87912;1288;82339;-75
2021/11/19 09:08:47;;;;;;;4.30;3.40;;;;;;;10.74;87.63;100364.45;87922;1288;99806;-74
2021/11/19 09:10:58;;;;;;;4.60;3.50;;;;;;;10.77;87.61;100359.91;87960;1289;88841;-75
2021/11/19 09:13:06;;;;;;;4.50;3.50;;;;;;;10.80;87.57;100361.16;87898;1285;93344;-77
2021/11/19 09:15:21;;;;;;;4.10;3.70;;;;;;;10.85;87.71;100355.14;87914;1281;79219;-74
2021/11/19 09:18:14;;;;;;;4.90;3.90;;;;;;;10.85;87.69;100360.05;87939;1291;81824;-74
2021/11/19 09:20:37;;;;;;;4.80;4.30;;;;;;;10.82;87.72;100354.66;87336;1294;98160;-74
2021/11/19 09:22:52;;;;;;;4.30;3.90;;;;;;;10.79;87.63;100353.16;87347;1294;88796;-66
2021/11/19 09:24:59;;;;;;;5.10;3.60;;;;;;;10.77;87.77;100355.39;87887;1288;95790;-66
2021/11/19 09:27:11;;;;;;;3.50;3.20;;;;;;;10.78;87.64;100360.85;87863;1290;80115;-73
2021/11/19 09:29:34;;;;;;;3.20;2.90;;;;;;;10.76;87.64;100358.48;87934;1290;82410;-73
2021/11/19 09:31:42;;;;;;;3.40;3.10;;;;;;;10.77;87.64;100356.67;87885;1290;98283;-72
2021/11/19 09:33:50;;;;;;;3.80;3.00;;;;;;;10.82;87.73;100349.11;87895;1290;89035;-66
2021/11/19 09:35:57;;;;;;;2.90;2.60;;;;;;;10.84;87.81;100348.98;87885;1290;95614;-66
2021/11/19 09:38:11;;;;;;;3.20;2.40;;;;;;;10.88;87.72;100347.17;87909;1289;81761;-66
2021/11/19 09:40:27;;;;;;;4.20;2.40;;;;;;;10.95;87.65;100349.20;87876;1290;83330;-66
2021/11/19 09:42:50;;;;;;;2.60;2.40;;;;;;;10.95;87.77;100348.09;87882;1284;97459;-73
2021/11/19 09:45:31;;;;;;;2.60;2.20;;;;;;;11.02;87.80;100347.55;87904;1290;89142;-72
2021/11/19 09:48:40;;;;;;;3.00;2.30;;;;;;;11.06;87.81;100347.03;87913;1285;95424;-73
2021/11/19 09:51:57;;;;;;;3.00;2.30;;;;;;;11.14;87.76;100342.43;87905;1290;81014;-73
2021/11/19 09:54:58;;;;;;;2.80;2.30;;;;;;;11.16;87.71;100336.25;87336;1296;83199;-73
2021/11/19 09:57:36;;;;;;;2.90;2.00;;;;;;;11.07;87.75;100327.83;87890;1293;98467;-67
2021/11/19 09:59:47;;;;;;;3.00;2.20;;;;;;;11.07;87.81;100323.70;87804;1290;86744;-66
2021/11/19 10:02:43;;;;;;;3.30;2.40;;;;;;;11.11;87.83;100316.83;87883;1291;94591;-74
2021/11/19 10:05:36;;;;;;;2.70;2.20;;;;;;;11.15;87.77;100309.44;87904;1290;82571;-73
2021/11/19 10:07:56;;;;;;;2.40;1.80;;;;;;;11.10;87.82;100314.80;87292;1294;82787;-66
2021/11/19 10:10:51;;;;;;;3.10;2.10;;;;;;;11.15;87.80;100309.27;87905;1293;99711;-66
2021/11/19 10:13:11;;;;;;;2.30;2.10;;;;;;;11.20;87.88;100302.02;87286;1291;88477;-74
2021/11/19 10:15:27;;;;;;;2.00;1.80;;;;;;;11.23;87.87;100300.71;87263;1295;95412;-74